• Join FlightAware (Why Join?)
  • Login
  • US Flag 
11:55AM EDT


 

Airport Tracker/Info


-or-


 

Live Flight TrackerFlight Track Log ✈ ASQ6115 ✈ 01-May-2013 ✈ KIAD - KBNA

Flight Track Log - Related Links

Times and Time Zones

All times are in EDT time to prevent confusion due to time zone crossing. See the ASQ6115 flight status page for this flight to view local times or setup timezone preferences in your user account.

Time Position Orientation Groundspeed Altitude Reporting Facility
EDT Latitude Longitude Course Direction KTS MPH feet Rate Location/Type
05:17PM 38.8667 -77.5000 218° Southwest 233 268 3,100  Level Potomac TRACON
05:18PM 38.8167 -77.5500 218° Southwest 256 295 5,600 2,280 Climbing Potomac TRACON
05:20PM 38.7661 -77.6764 243° Southwest 280 322 9,200 1,920 Climbing Washington Center
05:21PM 38.7831 -77.7781 282° West 275 316 10,700 1,260 Climbing Washington Center
05:22PM 38.8017 -77.9011 281° West 309 356 11,800 1,500 Climbing Washington Center
05:23PM 38.8242 -78.0244 283° West 341 392 13,800 1,560 Climbing Washington Center
05:24PM 38.8447 -78.1450 282° West 352 405 15,000 1,080 Climbing Washington Center
05:25PM 38.8539 -78.2919 275° West 366 421 16,000 1,080 Climbing Washington Center
05:26PM 38.8511 -78.4172 268° West 381 438 17,300 900 Climbing Washington Center
05:27PM 38.8517 -78.5692 270° West 386 444 17,900 840 Climbing Washington Center
05:28PM 38.8481 -78.7075 268° West 386 444 19,000 1,140 Climbing Washington Center
05:29PM 38.8483 -78.8517 270° West 391 450 20,200 1,080 Climbing Washington Center
05:30PM 38.8464 -78.9981 269° West 403 464 21,200 960 Climbing Washington Center
05:31PM 38.8447 -79.1314 269° West 415 478 22,200 960 Climbing Washington Center
05:32PM 38.8275 -79.2878 262° West 415 478 23,200 1,020 Climbing Washington Center
05:33PM 38.8019 -79.4383 258° West 426 490 24,300 1,080 Climbing Washington Center
05:34PM 38.7719 -79.5886 256° West 435 501 25,400 960 Climbing Washington Center
05:35PM 38.7461 -79.7336 257° West 430 495 26,300 900 Climbing Washington Center
05:36PM 38.7203 -79.8783 257° West 425 489 27,300 960 Climbing Washington Center
05:37PM 38.6947 -80.0047 256° West 420 483 28,300 960 Climbing Washington Center
05:39PM 38.6447 -80.2631 256° West 406 467 30,200 960 Climbing Indianapolis Center
05:40PM 38.6186 -80.4039 257° West 408 470 31,200 840 Climbing Indianapolis Center
05:41PM 38.5919 -80.5461 257° West 408 470 32,000 360 Climbing Indianapolis Center
05:42PM 38.5569 -80.7272 256° West 434 499 32,000  Level Indianapolis Center
05:43PM 38.5253 -80.8833 256° West 449 517 32,000  Level Indianapolis Center
05:44PM 38.4956 -81.0369 256° West 445 512 32,000  Level Indianapolis Center
05:45PM 38.4653 -81.1917 256° West 445 512 32,000  Level Indianapolis Center
05:46PM 38.4350 -81.3450 256° West 442 509 32,000  Level Indianapolis Center
05:47PM 38.4042 -81.4972 256° West 439 505 32,000  Level Indianapolis Center
05:48PM 38.3744 -81.6478 256° West 435 501 32,000  Level Indianapolis Center
05:49PM 38.3386 -81.7947 253° West 431 496 32,000  Level Indianapolis Center
05:50PM 38.2819 -81.9306 242° Southwest 432 497 32,000  Level Indianapolis Center
05:51PM 38.2144 -82.0922 242° Southwest 431 496 32,000  Level Indianapolis Center
05:52PM 38.1594 -82.2258 242° Southwest 430 495 32,000  Level Indianapolis Center
05:53PM 38.1039 -82.3572 242° Southwest 424 488 32,000  Level Indianapolis Center
05:54PM 38.0481 -82.4869 241° Southwest 420 483 32,000  Level Indianapolis Center
05:55PM 37.9931 -82.6172 242° Southwest 420 483 32,000  Level Indianapolis Center
05:56PM 37.9289 -82.7669 242° Southwest 415 478 32,000  Level Indianapolis Center
05:57PM 37.8736 -82.8953 241° Southwest 416 479 32,000  Level Indianapolis Center
05:58PM 37.8186 -83.0233 241° Southwest 415 478 32,000  Level Indianapolis Center
05:59PM 37.7631 -83.1500 241° Southwest 414 476 32,000  Level Indianapolis Center
06:00PM 37.7089 -83.2772 242° Southwest 413 475 32,000  Level Indianapolis Center
06:01PM 37.6442 -83.4269 241° Southwest 416 479 32,000  Level Indianapolis Center
06:02PM 37.5867 -83.5553 241° Southwest 421 484 32,000  Level Indianapolis Center
06:03PM 37.5292 -83.6853 241° Southwest 424 488 32,000  Level Indianapolis Center
06:05PM 37.4717 -83.8172 241° Southwest 430 495 32,000 -240 Level Indianapolis Center
06:06PM 37.4019 -83.9706 240° Southwest 433 498 31,500 -1,260 Descending Indianapolis Center
06:07PM 37.3453 -84.0992 241° Southwest 425 489 29,500 -1,980 Descending Indianapolis Center
06:08PM 37.2881 -84.2294 241° Southwest 431 496 27,500 -1,980 Descending Indianapolis Center
06:09PM 37.2253 -84.3675 240° Southwest 453 521 25,500 -1,680 Descending Indianapolis Center
06:10PM 37.1636 -84.5022 240° Southwest 447 514 24,100 -780 Descending Indianapolis Center
06:11PM 37.0947 -84.6586 241° Southwest 442 509 24,000 -60 Descending Indianapolis Center
06:12PM 37.0308 -84.7961 240° Southwest 441 507 24,000 -60 Level Indianapolis Center
06:13PM 36.9692 -84.9319 240° Southwest 447 514 23,900 -840 Descending Indianapolis Center
06:14PM 36.9075 -85.0644 240° Southwest 445 512 22,300 -960 Descending Indianapolis Center
06:15PM 36.8475 -85.1947 240° Southwest 435 501 22,000 -180 Descending Indianapolis Center
06:16PM 36.7864 -85.3247 240° Southwest 435 501 22,000 -120 Level Indianapolis Center
06:17PM 36.7258 -85.4544 240° Southwest 433 498 21,800 -1,080 Descending Indianapolis Center
06:18PM 36.6608 -85.5847 238° Southwest 446 513 19,900 -2,100 Descending Memphis Center
06:19PM 36.6031 -85.7069 240° Southwest 433 498 17,700 -2,460 Descending Memphis Center
06:20PM 36.5433 -85.8394 241° Southwest 414 476 15,000 -2,640 Descending Memphis Center
06:21PM 36.4911 -85.9536 240° Southwest 409 471 12,500 -2,160 Descending Memphis Center
06:22PM 36.4511 -86.0639 246° West 372 428 10,700 -1,740 Descending Memphis Center
06:23PM 36.4233 -86.1636 251° West 334 384 9,100 -1,740 Descending Memphis Center
06:24PM 36.3972 -86.2603 251° West 308 354 7,300 -1,500 Descending Memphis Center
06:25PM 36.3711 -86.3492 250° West 286 329 6,100 -660 Descending Memphis Center
06:26PM 36.3447 -86.4381 250° West 280 322 6,000 -300 Descending Memphis Center
06:27PM 36.3222 -86.5164 250° West 275 316 5,600 -1,200 Descending Memphis Center
06:28PM 36.2764 -86.5856 231° Southwest 268 308 3,600 -1,680 Descending Memphis Center
06:29PM 36.2192 -86.6242 209° Southwest 253 291 2,300 -1,080 Descending Memphis Center
06:30PM 36.1717 -86.6444 199° South 204 235 1,500 -840 Descending Memphis Center
06:31PM 36.1347 -86.6589 198° South 158 182 700 -840 Descending Memphis Center
06:35PM 36.1114 -86.6688 18° North  Level FlightAware Approximate
06:42PM 36.1167 -86.6667 18° North  Level FlightAware Approximate
06:43PM 36.1245 -86.6782 18° North  Level Estimated
06:44PM 36.1245 -86.6782 18° North  Level Estimated
06:45PM 36.1245 -86.6782 18° North  Level Estimated
06:46PM 36.1245 -86.6782 18° North  Level Estimated
06:47PM 36.1245 -86.6782 18° North  Level Estimated
06:48PM 36.1245 -86.6782 18° North  Level Estimated
06:49PM 36.1245 -86.6782 18° North  Level Estimated
06:50PM 36.1245 -86.6782 18° North  Level Estimated
06:51PM 36.1245 -86.6782 18° North  Level Estimated